createdAt,value
2019-05-01T00:01:32.742Z,23.70
2019-05-01T00:04:25.209Z,24.37
2019-05-01T00:06:56.335Z,24.03
2019-05-01T00:09:23.950Z,23.87
2019-05-01T00:11:51.300Z,23.67
2019-05-01T00:14:25.763Z,22.70
2019-05-01T00:16:53.138Z,24.73
2019-05-01T00:19:20.478Z,25.03
2019-05-01T00:21:47.964Z,25.07
2019-05-01T00:24:15.298Z,27.03
2019-05-01T00:26:42.605Z,27.50
2019-05-01T00:29:09.926Z,27.53
2019-05-01T00:31:37.378Z,26.00
2019-05-01T00:34:04.714Z,25.77
2019-05-01T00:36:31.996Z,23.27
2019-05-01T00:38:59.419Z,21.63
2019-05-01T00:41:26.661Z,22.57
2019-05-01T00:43:54.033Z,23.80
2019-05-01T00:46:21.327Z,22.03
2019-05-01T00:48:48.629Z,22.63
2019-05-01T00:51:16.000Z,22.13
2019-05-01T00:53:43.456Z,23.97
2019-05-01T00:56:23.292Z,22.20
2019-05-01T00:58:59.416Z,21.60
2019-05-01T01:01:47.523Z,22.87
2019-05-01T01:04:16.647Z,21.77
2019-05-01T01:06:44.073Z,21.20
2019-05-01T01:09:11.483Z,22.23
2019-05-01T01:11:38.758Z,22.70
2019-05-01T01:14:06.040Z,22.23
2019-05-01T01:16:33.425Z,23.07
2019-05-01T01:19:00.768Z,24.13
2019-05-01T01:21:27.968Z,23.33
2019-05-01T01:23:55.323Z,24.47
2019-05-01T01:26:22.708Z,23.20
2019-05-01T01:28:49.884Z,24.37
2019-05-01T01:31:17.222Z,22.83
2019-05-01T01:33:45.211Z,23.60
2019-05-01T01:36:12.758Z,22.60
2019-05-01T01:38:42.315Z,23.47
2019-05-01T01:41:10.253Z,24.80
2019-05-01T01:43:51.484Z,23.80
2019-05-01T01:46:20.086Z,22.77
2019-05-01T01:48:47.464Z,22.33
2019-05-01T01:51:14.829Z,22.23
2019-05-01T01:53:42.208Z,22.17
2019-05-01T01:56:09.515Z,21.90
2019-05-01T01:58:36.881Z,22.97
2019-05-01T02:01:22.138Z,21.03
2019-05-01T02:03:54.256Z,22.27
2019-05-01T02:06:21.579Z,21.17
2019-05-01T02:08:56.219Z,24.70
2019-05-01T02:11:18.213Z,24.57
2019-05-01T02:13:45.493Z,22.80
2019-05-01T02:16:12.809Z,24.57
2019-05-01T02:18:40.070Z,25.77
2019-05-01T02:21:07.420Z,25.20
2019-05-01T02:23:34.704Z,27.17
2019-05-01T02:26:02.161Z,27.87
2019-05-01T02:28:39.826Z,27.87
2019-05-01T02:31:27.489Z,24.63
2019-05-01T02:33:46.245Z,24.03
2019-05-01T02:36:13.744Z,26.30
2019-05-01T02:38:41.073Z,26.10
2019-05-01T02:41:08.590Z,25.63
2019-05-01T02:43:35.889Z,24.03
2019-05-01T02:46:03.273Z,21.83
2019-05-01T02:48:31.500Z,21.40
2019-05-01T02:50:59.956Z,24.03
2019-05-01T02:53:27.231Z,21.90
2019-05-01T02:56:17.375Z,20.93
2019-05-01T02:58:45.097Z,21.93
2019-05-01T03:01:14.305Z,23.00
2019-05-01T03:03:41.509Z,22.37
2019-05-01T03:06:08.958Z,23.20
2019-05-01T03:08:36.331Z,25.23
2019-05-01T03:11:03.724Z,23.23
2019-05-01T03:13:31.131Z,23.93
2019-05-01T03:15:58.382Z,22.93
2019-05-01T03:18:31.476Z,25.77
2019-05-01T03:21:12.664Z,23.43
2019-05-01T03:23:43.644Z,23.57
2019-05-01T03:26:11.024Z,27.33
2019-05-01T03:28:38.276Z,28.40
2019-05-01T03:31:05.606Z,26.27
2019-05-01T03:33:33.026Z,26.83
2019-05-01T03:36:00.284Z,25.90
2019-05-01T03:38:27.775Z,30.83
2019-05-01T03:40:55.064Z,25.43
2019-05-01T03:43:22.318Z,25.33
2019-05-01T03:45:49.592Z,25.73
2019-05-01T03:48:16.942Z,27.77
2019-05-01T03:50:46.862Z,27.00
2019-05-01T03:53:13.660Z,27.37
2019-05-01T03:55:41.874Z,29.37
2019-05-01T03:58:09.313Z,25.70
2019-05-01T04:01:02.257Z,26.77
2019-05-01T04:03:33.716Z,27.73
2019-05-01T04:06:03.081Z,26.07
2019-05-01T04:08:30.729Z,25.50
2019-05-01T04:10:59.908Z,23.47
2019-05-01T04:13:27.769Z,22.07
2019-05-01T04:15:56.818Z,22.83
2019-05-01T04:18:24.175Z,26.80
2019-05-01T04:20:51.506Z,24.83
2019-05-01T04:23:19.182Z,25.47
2019-05-01T04:25:46.647Z,26.00
2019-05-01T04:28:31.914Z,23.03
2019-05-01T04:31:09.458Z,24.40
2019-05-01T04:33:38.007Z,23.77
2019-05-01T04:36:10.131Z,21.73
2019-05-01T04:38:37.459Z,22.20
2019-05-01T04:41:04.817Z,20.83
2019-05-01T04:43:32.348Z,21.13
2019-05-01T04:45:59.786Z,20.53
2019-05-01T04:48:27.054Z,21.43
2019-05-01T04:50:54.548Z,21.77
2019-05-01T04:53:22.041Z,21.90
2019-05-01T04:55:49.254Z,22.13
2019-05-01T04:58:16.579Z,22.00
2019-05-01T05:00:44.062Z,22.80
2019-05-01T05:03:15.787Z,21.33
2019-05-01T05:05:43.341Z,22.80
2019-05-01T05:08:12.396Z,24.30
2019-05-01T05:10:40.374Z,22.87
2019-05-01T05:13:30.063Z,21.80
2019-05-01T05:16:13.412Z,22.80
2019-05-01T05:18:50.503Z,23.43
2019-05-01T05:21:17.877Z,20.67
2019-05-01T05:23:45.185Z,22.50
2019-05-01T05:26:12.477Z,21.20
2019-05-01T05:28:39.810Z,23.77
2019-05-01T05:31:07.197Z,24.37
2019-05-01T05:33:34.611Z,27.97
2019-05-01T05:36:01.894Z,27.33
2019-05-01T05:38:48.764Z,27.83
2019-05-01T05:41:16.922Z,25.70
2019-05-01T05:43:44.332Z,25.13
2019-05-01T05:46:12.094Z,24.70
2019-05-01T05:48:39.720Z,24.10
2019-05-01T05:51:28.740Z,24.37
2019-05-01T05:53:59.791Z,20.60
2019-05-01T05:56:32.056Z,18.17
2019-05-01T05:59:03.435Z,19.77
2019-05-01T06:01:48.631Z,18.53
2019-05-01T06:04:30.399Z,16.67
2019-05-01T06:07:19.986Z,15.47
2019-05-01T06:09:57.387Z,16.90
2019-05-01T06:12:41.765Z,16.20
2019-05-01T06:15:18.019Z,17.07
2019-05-01T06:17:50.002Z,16.80
2019-05-01T06:20:38.536Z,17.70
2019-05-01T06:23:20.747Z,19.10
2019-05-01T06:25:46.812Z,19.13
2019-05-01T06:28:14.107Z,22.20
2019-05-01T06:30:41.933Z,22.60
2019-05-01T06:33:11.285Z,24.80
2019-05-01T06:35:39.469Z,23.50
2019-05-01T06:38:11.050Z,24.90
2019-05-01T06:40:42.554Z,24.47
2019-05-01T06:43:20.208Z,24.47
2019-05-01T06:45:52.588Z,23.57
2019-05-01T06:48:21.422Z,24.03
2019-05-01T06:50:55.219Z,24.20
2019-05-01T06:53:22.418Z,24.93
2019-05-01T06:55:51.498Z,23.43
2019-05-01T06:58:20.419Z,24.40
2019-05-01T07:00:48.064Z,22.67
2019-05-01T07:03:15.470Z,24.20
2019-05-01T07:05:44.613Z,23.50
2019-05-01T07:08:24.055Z,24.30
2019-05-01T07:10:43.907Z,24.07
2019-05-01T07:13:10.408Z,22.83
2019-05-01T07:15:37.715Z,21.90
2019-05-01T07:18:05.031Z,25.73
2019-05-01T07:20:53.246Z,27.13
2019-05-01T07:23:20.938Z,24.43
2019-05-01T07:25:48.303Z,24.97
2019-05-01T07:28:15.665Z,24.83
2019-05-01T07:30:49.809Z,24.53
2019-05-01T07:33:17.899Z,24.03
2019-05-01T07:35:45.298Z,25.37
2019-05-01T07:38:12.593Z,23.50
2019-05-01T07:40:39.857Z,25.27
2019-05-01T07:43:25.824Z,25.00
2019-05-01T07:46:04.761Z,24.03
2019-05-01T07:48:35.972Z,23.43
2019-05-01T07:51:06.948Z,25.70
2019-05-01T07:53:34.133Z,26.40
2019-05-01T07:56:01.463Z,24.17
2019-05-01T07:58:28.710Z,25.17
2019-05-01T08:01:02.330Z,23.43
2019-05-01T08:03:29.650Z,23.47
2019-05-01T08:05:56.973Z,23.53
2019-05-01T08:08:24.351Z,24.13
2019-05-01T08:10:51.675Z,24.17
2019-05-01T08:13:18.932Z,25.30
2019-05-01T08:15:46.212Z,22.87
2019-05-01T08:18:27.517Z,24.60
2019-05-01T08:21:04.337Z,23.13
2019-05-01T08:23:31.709Z,22.43
2019-05-01T08:25:58.988Z,22.20
2019-05-01T08:28:55.687Z,22.20
2019-05-01T08:31:32.235Z,20.87
2019-05-01T08:34:02.871Z,20.10
2019-05-01T08:36:30.178Z,22.00
2019-05-01T08:38:57.461Z,20.13
2019-05-01T08:41:27.107Z,16.53
2019-05-01T08:43:55.780Z,16.50
2019-05-01T08:46:46.890Z,17.67
2019-05-01T08:49:24.702Z,17.33
2019-05-01T08:51:52.113Z,15.50
2019-05-01T08:54:19.503Z,14.07
2019-05-01T08:56:47.019Z,16.50
2019-05-01T08:59:14.456Z,15.50
2019-05-01T09:01:45.815Z,16.20
2019-05-01T09:04:13.336Z,14.93
2019-05-01T09:06:43.913Z,15.00
2019-05-01T09:09:10.180Z,14.77
2019-05-01T09:11:37.528Z,14.63
2019-05-01T09:14:04.888Z,13.77
2019-05-01T09:16:32.196Z,15.73
2019-05-01T09:18:59.488Z,15.67
2019-05-01T09:21:26.772Z,13.17
2019-05-01T09:23:54.147Z,13.33
2019-05-01T09:26:50.289Z,13.97
2019-05-01T09:29:23.436Z,13.47
2019-05-01T09:31:52.366Z,14.93
2019-05-01T09:34:21.100Z,13.37
2019-05-01T09:36:48.531Z,12.53
2019-05-01T09:39:16.012Z,14.20
2019-05-01T09:41:47.298Z,13.77
2019-05-01T09:44:12.448Z,14.50
2019-05-01T09:46:39.807Z,14.20
2019-05-01T09:49:07.460Z,13.17
2019-05-01T09:51:55.277Z,14.00
2019-05-01T09:54:31.590Z,13.07
2019-05-01T09:56:58.901Z,13.03
2019-05-01T09:59:26.244Z,13.53
2019-05-01T10:01:53.558Z,12.40
2019-05-01T10:04:20.892Z,13.40
2019-05-01T10:06:52.206Z,13.90
2019-05-01T10:09:18.081Z,14.00
2019-05-01T10:11:45.653Z,12.13
2019-05-01T10:14:13.022Z,13.60
2019-05-01T10:16:40.292Z,12.50
2019-05-01T10:19:07.600Z,12.63
2019-05-01T10:21:34.924Z,13.80
2019-05-01T10:24:02.255Z,13.30
2019-05-01T10:26:31.349Z,13.50
2019-05-01T10:29:16.620Z,12.87
2019-05-01T10:32:17.034Z,12.93
2019-05-01T10:35:19.223Z,13.10
2019-05-01T10:37:44.852Z,13.93
2019-05-01T10:40:12.208Z,14.77
2019-05-01T10:42:41.041Z,12.50
2019-05-01T10:45:09.188Z,12.77
2019-05-01T10:47:36.530Z,13.30
2019-05-01T10:50:03.992Z,13.63
2019-05-01T10:52:31.265Z,13.27
2019-05-01T10:54:58.564Z,14.17
2019-05-01T10:57:26.012Z,13.03
2019-05-01T10:59:53.234Z,13.10
2019-05-01T11:02:20.621Z,13.73
2019-05-01T11:04:48.028Z,12.60
2019-05-01T11:07:15.470Z,13.47
2019-05-01T11:09:43.121Z,12.93
2019-05-01T11:12:10.512Z,11.87
2019-05-01T11:14:37.846Z,12.23
2019-05-01T11:17:05.214Z,14.33
2019-05-01T11:19:32.621Z,13.50
2019-05-01T11:21:59.909Z,12.87
2019-05-01T11:24:27.086Z,12.97
2019-05-01T11:26:54.407Z,12.83
2019-05-01T11:29:21.663Z,12.40
2019-05-01T11:32:08.966Z,13.23
2019-05-01T11:34:52.577Z,13.57
2019-05-01T11:37:33.614Z,13.60
2019-05-01T11:40:08.160Z,12.80
2019-05-01T11:42:35.512Z,13.70
2019-05-01T11:45:03.349Z,12.03
2019-05-01T11:47:30.762Z,13.23
2019-05-01T11:49:58.156Z,12.20
2019-05-01T11:52:25.466Z,12.37
2019-05-01T11:54:52.761Z,13.43
2019-05-01T11:57:20.131Z,13.40
2019-05-01T11:59:47.315Z,12.63
2019-05-01T12:02:14.628Z,11.80
2019-05-01T12:04:42.055Z,12.10
2019-05-01T12:07:09.474Z,12.20
2019-05-01T12:09:36.840Z,12.20
2019-05-01T12:12:08.151Z,13.87
2019-05-01T12:14:35.535Z,11.63
2019-05-01T12:17:15.275Z,11.70
2019-05-01T12:19:42.672Z,13.10
2019-05-01T12:22:10.059Z,11.53
2019-05-01T12:24:37.521Z,12.27
2019-05-01T12:27:04.916Z,13.13
2019-05-01T12:29:32.179Z,13.83
2019-05-01T12:31:59.503Z,12.60
2019-05-01T12:34:26.729Z,12.37
2019-05-01T12:37:13.696Z,11.83
2019-05-01T12:39:41.017Z,12.27
2019-05-01T12:42:08.439Z,12.53
2019-05-01T12:44:35.748Z,11.57
2019-05-01T12:47:11.265Z,11.97
2019-05-01T12:49:38.683Z,13.30
2019-05-01T12:52:10.798Z,12.13
2019-05-01T12:55:01.050Z,12.07
2019-05-01T12:57:28.785Z,11.17
2019-05-01T13:00:08.094Z,11.93
2019-05-01T13:02:25.399Z,12.13
2019-05-01T13:04:52.781Z,12.33
2019-05-01T13:07:20.117Z,12.13
2019-05-01T13:09:47.531Z,11.90
2019-05-01T13:12:14.963Z,12.27
2019-05-01T13:14:42.211Z,11.80
2019-05-01T13:17:09.510Z,12.27
2019-05-01T13:19:36.774Z,11.40
2019-05-01T13:22:05.398Z,11.20
2019-05-01T13:24:34.786Z,11.83
2019-05-01T13:27:12.342Z,10.57
2019-05-01T13:30:02.215Z,10.83
2019-05-01T13:32:46.236Z,11.83
2019-05-01T13:35:13.692Z,11.00
2019-05-01T13:37:41.037Z,11.70
2019-05-01T13:40:08.492Z,11.30
2019-05-01T13:42:35.839Z,11.20
2019-05-01T13:45:03.338Z,11.10
2019-05-01T13:47:30.636Z,10.20
2019-05-01T13:49:58.079Z,11.00
2019-05-01T13:52:25.286Z,11.40
2019-05-01T13:54:52.554Z,11.33
2019-05-01T13:57:20.215Z,10.47
2019-05-01T13:59:47.608Z,10.33
2019-05-01T14:02:15.498Z,10.37
2019-05-01T14:04:42.787Z,10.80
2019-05-01T14:07:16.650Z,11.80
2019-05-01T14:09:39.697Z,11.20
2019-05-01T14:12:07.023Z,10.23
2019-05-01T14:14:34.428Z,9.70
2019-05-01T14:17:01.816Z,10.63
2019-05-01T14:19:29.309Z,12.23
2019-05-01T14:22:14.249Z,11.00
2019-05-01T14:24:44.532Z,11.00
2019-05-01T14:27:11.876Z,10.30
2019-05-01T14:29:39.255Z,9.97
2019-05-01T14:32:06.560Z,9.37
2019-05-01T14:34:33.928Z,9.67
2019-05-01T14:37:01.420Z,10.30
2019-05-01T14:39:28.850Z,9.33
2019-05-01T14:41:56.107Z,10.00
2019-05-01T14:44:35.727Z,8.23
2019-05-01T14:46:52.530Z,8.17
2019-05-01T14:49:20.113Z,9.10
2019-05-01T14:51:47.375Z,9.07
2019-05-01T14:54:14.760Z,9.20
2019-05-01T14:56:43.417Z,8.80
2019-05-01T14:59:10.954Z,9.03
2019-05-01T15:01:38.236Z,8.70
2019-05-01T15:04:05.586Z,9.70
2019-05-01T15:06:32.949Z,9.20
2019-05-01T15:09:00.239Z,10.63
2019-05-01T15:11:27.504Z,10.13
2019-05-01T15:14:04.450Z,9.03
2019-05-01T15:16:42.068Z,9.03
2019-05-01T15:19:18.111Z,8.97
2019-05-01T15:21:45.464Z,8.10
2019-05-01T15:24:12.804Z,9.07
2019-05-01T15:26:40.208Z,9.10
2019-05-01T15:29:07.497Z,9.13
2019-05-01T15:31:34.814Z,9.20
2019-05-01T15:34:02.218Z,9.10
2019-05-01T15:36:29.516Z,9.37
2019-05-01T15:38:57.553Z,9.00
2019-05-01T15:41:56.225Z,9.00
2019-05-01T15:44:34.339Z,8.13
2019-05-01T15:47:01.722Z,7.43
2019-05-01T15:49:29.068Z,8.13
2019-05-01T15:51:56.381Z,8.37
2019-05-01T15:54:23.756Z,7.90
2019-05-01T15:56:51.133Z,8.67
2019-05-01T15:59:18.406Z,8.80
2019-05-01T16:01:45.728Z,8.80
2019-05-01T16:04:13.051Z,7.50
2019-05-01T16:06:40.320Z,8.03
2019-05-01T16:09:07.677Z,7.70
2019-05-01T16:12:12.665Z,7.80
2019-05-01T16:14:41.169Z,7.43
2019-05-01T16:17:08.548Z,8.47
2019-05-01T16:19:35.911Z,8.13
2019-05-01T16:22:03.374Z,8.20
2019-05-01T16:24:30.711Z,7.30
2019-05-01T16:26:58.099Z,7.17
2019-05-01T16:29:25.426Z,7.43
2019-05-01T16:31:52.760Z,7.47
2019-05-01T16:34:20.515Z,7.87
2019-05-01T16:36:47.871Z,7.20
2019-05-01T16:39:34.671Z,7.20
2019-05-01T16:42:02.023Z,7.40
2019-05-01T16:44:29.357Z,7.80
2019-05-01T16:46:56.667Z,7.67
2019-05-01T16:49:24.126Z,7.20
2019-05-01T16:51:51.424Z,8.00
2019-05-01T16:54:18.709Z,8.03
2019-05-01T16:56:46.092Z,7.90
2019-05-01T16:59:13.373Z,7.23
2019-05-01T17:01:50.461Z,7.33
2019-05-01T17:04:43.378Z,7.80
2019-05-01T17:07:33.317Z,8.10
2019-05-01T17:10:17.118Z,7.63
2019-05-01T17:12:46.301Z,7.90
2019-05-01T17:15:13.954Z,8.53
2019-05-01T17:17:41.310Z,8.03
2019-05-01T17:20:08.643Z,8.77
2019-05-01T17:22:36.000Z,8.90
2019-05-01T17:25:03.561Z,7.93
2019-05-01T17:27:30.803Z,7.97
2019-05-01T17:29:58.182Z,7.90
2019-05-01T17:32:25.441Z,8.37
2019-05-01T17:34:52.823Z,7.53
2019-05-01T17:37:20.112Z,7.73
2019-05-01T17:39:47.401Z,8.60
2019-05-01T17:42:14.714Z,7.90
2019-05-01T17:44:42.065Z,7.93
2019-05-01T17:47:09.513Z,7.87
2019-05-01T17:49:41.009Z,7.20
2019-05-01T17:52:06.036Z,7.80
2019-05-01T17:54:33.341Z,6.87
2019-05-01T17:57:00.677Z,7.90
2019-05-01T17:59:27.998Z,7.67
2019-05-01T18:02:13.822Z,6.77
2019-05-01T18:04:58.969Z,7.70
2019-05-01T18:07:28.880Z,7.63
2019-05-01T18:09:56.985Z,6.83
2019-05-01T18:12:28.432Z,8.20
2019-05-01T18:14:53.880Z,8.80
2019-05-01T18:17:21.156Z,9.03
2019-05-01T18:19:48.390Z,8.10
2019-05-01T18:22:38.960Z,9.30
2019-05-01T18:25:44.153Z,8.10
2019-05-01T18:28:45.858Z,9.53
2019-05-01T18:31:18.577Z,9.60
2019-05-01T18:33:46.289Z,14.53
2019-05-01T18:36:13.871Z,13.70
2019-05-01T18:38:50.238Z,14.50
2019-05-01T18:41:27.862Z,16.80
2019-05-01T18:43:55.148Z,18.77
2019-05-01T18:46:22.523Z,19.40
2019-05-01T18:48:49.949Z,20.90
2019-05-01T18:51:17.247Z,21.50
2019-05-01T18:53:44.652Z,21.77
2019-05-01T18:56:12.139Z,23.30
2019-05-01T18:58:39.616Z,23.53
2019-05-01T19:01:09.294Z,28.10
2019-05-01T19:03:37.066Z,27.07
2019-05-01T19:06:05.469Z,25.47
2019-05-01T19:08:32.767Z,27.57
2019-05-01T19:11:11.841Z,25.33
2019-05-01T19:13:29.415Z,26.07
2019-05-01T19:15:56.814Z,25.47
2019-05-01T19:18:24.223Z,25.80
2019-05-01T19:20:59.422Z,25.27
2019-05-01T19:23:22.265Z,24.77
2019-05-01T19:25:50.275Z,26.30
2019-05-01T19:28:18.132Z,24.80
2019-05-01T19:30:45.540Z,24.20
2019-05-01T19:33:12.990Z,25.27
2019-05-01T19:35:40.373Z,24.40
2019-05-01T19:38:08.485Z,24.17
2019-05-01T19:40:35.808Z,23.33
2019-05-01T19:43:03.186Z,23.30
2019-05-01T19:45:30.473Z,24.37
2019-05-01T19:47:57.838Z,23.30
2019-05-01T19:50:25.079Z,22.93
2019-05-01T19:52:55.993Z,23.50
2019-05-01T19:55:23.395Z,22.97
2019-05-01T19:57:50.700Z,23.83
2019-05-01T20:00:40.789Z,23.87
2019-05-01T20:03:08.209Z,22.00
2019-05-01T20:05:35.590Z,24.10
2019-05-01T20:08:03.006Z,23.00
2019-05-01T20:10:30.331Z,24.50
2019-05-01T20:12:57.715Z,21.90
2019-05-01T20:15:26.589Z,21.03
2019-05-01T20:17:53.973Z,22.60
2019-05-01T20:20:21.363Z,22.67
2019-05-01T20:22:53.207Z,21.57
2019-05-01T20:25:19.378Z,21.53
2019-05-01T20:27:50.528Z,20.83
2019-05-01T20:30:16.614Z,20.73
2019-05-01T20:32:44.034Z,21.23
2019-05-01T20:35:11.388Z,19.33
2019-05-01T20:37:38.717Z,20.47
2019-05-01T20:40:11.256Z,22.77
2019-05-01T20:42:35.278Z,19.20
2019-05-01T20:45:05.393Z,21.40
2019-05-01T20:47:35.280Z,19.90
2019-05-01T20:50:01.198Z,21.60
2019-05-01T20:52:28.576Z,23.80
2019-05-01T20:54:55.830Z,21.73
2019-05-01T20:57:27.864Z,21.10
2019-05-01T20:59:55.082Z,21.07
2019-05-01T21:02:22.476Z,20.07
2019-05-01T21:05:09.368Z,20.10
2019-05-01T21:07:41.940Z,22.37
2019-05-01T21:10:09.347Z,20.37
2019-05-01T21:12:36.739Z,20.00
2019-05-01T21:15:04.248Z,21.17
2019-05-01T21:17:31.613Z,22.20
2019-05-01T21:19:58.895Z,20.13
2019-05-01T21:22:26.087Z,22.20
2019-05-01T21:24:53.394Z,21.50
2019-05-01T21:27:20.771Z,21.80
2019-05-01T21:29:47.983Z,22.83
2019-05-01T21:32:18.396Z,24.03
2019-05-01T21:34:44.595Z,24.50
2019-05-01T21:37:12.015Z,24.27
2019-05-01T21:39:39.428Z,24.57
2019-05-01T21:42:11.548Z,26.93
2019-05-01T21:44:35.955Z,28.40
2019-05-01T21:47:03.945Z,28.60
2019-05-01T21:49:33.153Z,28.30
2019-05-01T21:52:00.303Z,27.03
2019-05-01T21:54:27.619Z,30.10
2019-05-01T21:56:54.996Z,30.17
2019-05-01T21:59:22.274Z,30.03
2019-05-01T22:01:49.570Z,30.03
2019-05-01T22:04:16.865Z,33.17
2019-05-01T22:06:46.756Z,30.80
2019-05-01T22:09:17.264Z,29.73
2019-05-01T22:11:44.731Z,28.30
2019-05-01T22:14:16.567Z,32.30
2019-05-01T22:16:43.900Z,29.33
2019-05-01T22:19:16.460Z,29.90
2019-05-01T22:22:00.145Z,31.07
2019-05-01T22:24:58.983Z,28.87
2019-05-01T22:27:33.112Z,30.10
2019-05-01T22:30:12.626Z,33.73
2019-05-01T22:32:43.611Z,34.07
2019-05-01T22:35:19.146Z,32.97
2019-05-01T22:37:46.626Z,33.13
2019-05-01T22:40:15.749Z,33.53
2019-05-01T22:42:43.097Z,32.70
2019-05-01T22:45:18.342Z,30.60
2019-05-01T22:47:46.109Z,30.90
2019-05-01T22:50:14.863Z,35.10
2019-05-01T22:52:42.195Z,30.57
2019-05-01T22:55:09.543Z,33.40
2019-05-01T22:57:36.980Z,30.03
2019-05-01T23:00:05.732Z,30.80
2019-05-01T23:02:38.977Z,33.77
2019-05-01T23:05:06.651Z,35.40
2019-05-01T23:07:33.956Z,33.03
2019-05-01T23:10:03.315Z,36.07
2019-05-01T23:12:30.603Z,34.67
2019-05-01T23:14:58.004Z,34.60
2019-05-01T23:17:34.904Z,30.97
2019-05-01T23:20:03.958Z,34.63
2019-05-01T23:22:30.593Z,32.17
2019-05-01T23:24:57.869Z,31.90
2019-05-01T23:27:29.391Z,33.70
2019-05-01T23:29:54.335Z,33.27
2019-05-01T23:32:21.652Z,33.13
2019-05-01T23:34:49.019Z,36.47
2019-05-01T23:37:16.328Z,35.73
2019-05-01T23:39:43.643Z,34.30
2019-05-01T23:42:10.978Z,33.33
2019-05-01T23:44:42.841Z,32.47
2019-05-01T23:47:07.505Z,31.80
2019-05-01T23:49:34.820Z,31.03
2019-05-01T23:52:03.320Z,28.77
2019-05-01T23:54:31.342Z,28.77
2019-05-01T23:56:58.763Z,27.40
2019-05-01T23:59:26.188Z,27.53
